Time;durP1;ratioP1;P1;durP2;ratioP2;P2;SDS_P1;SDS_P2;PMS_P1;PMS_P2;Temp;Humidity;BMP_temperature;BMP_pressure;BME280_temperature;BME280_humidity;BME280_pressure;Samples;Min_cycle;Max_cycle;Signal;HPM_P1;HPM_P2
2022/04/20 00:02:07;;;;;;;3.03;1.20;;;9.70;71.90;;;-146.41;100.00;57768.22;4947630;28;20063;-74
2022/04/20 00:04:35;;;;;;;3.55;1.15;;;9.60;72.10;;;-146.41;100.00;57768.22;4945414;29;20550;-74
2022/04/20 00:07:03;;;;;;;4.82;1.60;;;9.60;71.90;;;-146.41;100.00;57768.22;4944942;28;20198;-74
2022/04/20 00:09:30;;;;;;;2.78;1.17;;;9.50;71.50;;;-146.41;100.00;57768.22;4947268;29;20688;-74
2022/04/20 00:11:57;;;;;;;2.33;1.10;;;9.60;71.60;;;-146.41;100.00;57768.22;4945554;29;20055;-74
2022/04/20 00:14:24;;;;;;;2.65;1.10;;;9.50;72.30;;;-146.41;100.00;57768.22;4931075;29;20047;-74
2022/04/20 00:16:51;;;;;;;3.95;1.30;;;9.50;72.20;;;-146.41;100.00;57768.22;4945660;29;20056;-74
2022/04/20 00:19:18;;;;;;;4.63;1.15;;;9.40;71.90;;;-146.41;100.00;57768.22;4947944;28;20051;-74
2022/04/20 00:21:45;;;;;;;8.25;1.30;;;9.30;72.30;;;-146.41;100.00;57768.22;4945019;29;20055;-74
2022/04/20 00:24:12;;;;;;;3.35;0.90;;;9.20;72.90;;;-146.41;100.00;57768.22;4944434;29;20050;-74
2022/04/20 00:26:39;;;;;;;3.88;0.90;;;9.20;73.50;;;-146.41;100.00;57768.22;4944105;28;20125;-73
2022/04/20 00:29:06;;;;;;;2.17;1.00;;;9.10;73.50;;;-146.41;100.00;57768.22;4932758;29;20154;-73
2022/04/20 00:31:33;;;;;;;2.25;0.90;;;9.10;72.90;;;-146.41;100.00;57768.22;4945027;29;20143;-73
2022/04/20 00:34:00;;;;;;;3.67;0.98;;;9.00;73.20;;;-146.41;100.00;57768.22;4947056;29;20051;-73
2022/04/20 00:36:27;;;;;;;4.18;1.10;;;9.00;73.80;;;-146.41;100.00;57768.22;4941933;28;20057;-73
2022/04/20 00:38:54;;;;;;;3.55;0.82;;;8.90;73.50;;;-146.41;100.00;57768.22;4931389;29;20051;-73
2022/04/20 00:41:21;;;;;;;5.40;1.15;;;9.00;73.00;;;-146.41;100.00;57768.22;4940525;28;20699;-73
2022/04/20 00:43:48;;;;;;;2.33;1.00;;;8.80;75.00;;;-146.41;100.00;57768.22;4944021;29;20134;-73
2022/04/20 00:46:19;;;;;;;2.55;1.02;;;8.70;74.40;;;-146.41;100.00;57768.22;4941465;29;20364;-73
2022/04/20 00:48:47;;;;;;;2.30;0.98;;;8.70;74.30;;;-146.41;100.00;57768.22;4924515;29;20089;-73
2022/04/20 00:51:14;;;;;;;2.35;1.00;;;8.60;75.20;;;-146.41;100.00;57768.22;4942346;28;20711;-73
2022/04/20 00:53:42;;;;;;;9.32;1.20;;;8.50;75.90;;;-146.41;100.00;57768.22;4929909;29;20051;-73
2022/04/20 00:56:09;;;;;;;3.30;0.88;;;8.30;77.10;;;-146.41;100.00;57768.22;4944579;28;20121;-74
2022/04/20 00:58:40;;;;;;;2.75;0.80;;;8.30;76.50;;;-146.41;100.00;57768.22;4943690;29;20101;-73
2022/04/20 01:01:08;;;;;;;2.67;0.98;;;8.30;76.30;;;-146.41;100.00;57768.22;4927664;29;20102;-73
2022/04/20 01:03:36;;;;;;;4.90;1.27;;;8.30;76.10;;;-146.41;100.00;57768.22;4942491;29;20129;-73
2022/04/20 01:06:03;;;;;;;4.38;1.00;;;8.10;76.70;;;-146.41;100.00;57768.22;4915239;29;20134;-72
2022/04/20 01:08:30;;;;;;;3.08;0.93;;;8.00;77.20;;;-146.41;100.00;57768.22;4943658;28;20166;-74
2022/04/20 01:10:57;;;;;;;4.45;1.10;;;8.00;77.70;;;-146.41;100.00;57768.22;4943380;28;20059;-73
2022/04/20 01:13:24;;;;;;;4.07;1.08;;;7.90;78.40;;;-146.41;100.00;57768.22;4945878;28;20039;-73
2022/04/20 01:15:51;;;;;;;2.85;1.05;;;7.90;77.90;;;-146.41;100.00;57768.22;4942353;28;20158;-73
2022/04/20 01:18:18;;;;;;;2.45;0.95;;;7.90;77.90;;;-146.41;100.00;57768.22;4950165;28;20658;-74
2022/04/20 01:20:45;;;;;;;2.40;1.13;;;7.90;77.10;;;-146.41;100.00;57768.22;4943357;28;20061;-74
2022/04/20 01:23:12;;;;;;;2.65;1.08;;;7.90;77.80;;;-146.41;100.00;57768.22;4947013;28;20050;-74
2022/04/20 01:25:39;;;;;;;2.22;0.93;;;7.80;77.80;;;-146.41;100.00;57768.22;4941319;28;20766;-73
2022/04/20 01:28:07;;;;;;;4.07;1.38;;;7.80;78.80;;;-146.41;100.00;57768.22;4944855;28;20078;-73
2022/04/20 01:30:36;;;;;;;3.53;1.10;;;7.60;79.10;;;-146.41;100.00;57768.22;4941859;28;20819;-72
2022/04/20 01:33:04;;;;;;;3.97;1.15;;;7.50;80.10;;;-146.41;100.00;57768.22;4935337;28;20414;-74
2022/04/20 01:35:31;;;;;;;5.30;0.95;;;7.40;79.80;;;-146.41;100.00;57768.22;4931764;28;20086;-74
2022/04/20 01:37:58;;;;;;;2.70;1.10;;;7.30;81.00;;;-146.41;100.00;57768.22;4946326;28;20079;-74
2022/04/20 01:40:24;;;;;;;3.10;1.23;;;7.30;81.40;;;-146.41;100.00;57768.22;4949717;28;20059;-74
2022/04/20 01:42:51;;;;;;;7.40;1.23;;;7.20;80.90;;;-146.41;100.00;57768.22;4948463;28;20055;-75
2022/04/20 01:45:18;;;;;;;5.70;1.23;;;7.30;80.70;;;-146.41;100.00;57768.22;4935695;29;20555;-74
2022/04/20 01:47:45;;;;;;;4.07;1.13;;;7.30;81.40;;;-146.41;100.00;57768.22;4945758;28;20094;-74
2022/04/20 01:50:12;;;;;;;3.25;1.20;;;7.20;81.30;;;-146.41;100.00;57768.22;4934263;28;20047;-74
2022/04/20 01:52:39;;;;;;;2.22;1.00;;;7.20;81.70;;;-146.41;100.00;57768.22;4946797;28;20519;-74
2022/04/20 01:55:07;;;;;;;3.60;1.02;;;7.10;82.10;;;-146.41;100.00;57768.22;4951158;28;20492;-74
2022/04/20 01:57:34;;;;;;;2.47;1.10;;;7.10;82.20;;;-146.41;100.00;57768.22;4944571;28;20086;-74
2022/04/20 02:00:01;;;;;;;4.68;1.33;;;7.00;83.10;;;-146.41;100.00;57768.22;4950754;28;20055;-74
2022/04/20 02:02:40;;;;;;;4.60;1.20;;;6.90;84.50;;;-146.41;100.00;57768.22;4947884;28;20130;-75
2022/04/20 02:05:10;;;;;;;3.92;1.17;;;6.80;85.40;;;-146.41;100.00;57768.22;4943615;29;20056;-74
2022/04/20 02:07:38;;;;;;;3.80;1.40;;;6.70;85.60;;;-146.41;100.00;57768.22;4944528;28;20087;-74
2022/04/20 02:10:06;;;;;;;3.58;1.15;;;6.60;86.10;;;-146.41;100.00;57768.22;4925201;29;20486;-74
2022/04/20 02:12:34;;;;;;;2.50;1.10;;;6.60;86.20;;;-146.41;100.00;57768.22;4947852;28;20110;-74
2022/04/20 02:15:02;;;;;;;3.22;1.20;;;6.50;87.10;;;-146.41;100.00;57768.22;4946239;28;20081;-74
2022/04/20 02:17:29;;;;;;;3.15;1.08;;;6.30;88.80;;;-146.41;100.00;57768.22;4922490;29;20098;-74
2022/04/20 02:19:58;;;;;;;2.55;1.15;;;6.30;89.40;;;-146.41;100.00;57768.22;4944246;28;20908;-74
2022/04/20 02:22:26;;;;;;;2.28;0.90;;;6.20;90.30;;;-146.41;100.00;57768.22;4943333;28;20051;-74
2022/04/20 02:24:53;;;;;;;3.78;1.15;;;6.30;90.10;;;-146.41;100.00;57768.22;4944738;28;20106;-74
2022/04/20 02:27:20;;;;;;;4.68;1.10;;;6.20;90.20;;;-146.41;100.00;57768.22;4929025;29;20102;-74
2022/04/20 02:29:47;;;;;;;3.78;1.20;;;6.20;90.20;;;-146.41;100.00;57768.22;4942922;29;20055;-74
2022/04/20 02:32:14;;;;;;;2.00;1.25;;;6.20;90.60;;;-146.41;100.00;57768.22;4945427;29;20058;-74
2022/04/20 02:34:41;;;;;;;3.03;1.13;;;6.00;91.20;;;-146.41;100.00;57768.22;4939792;29;20048;-74
2022/04/20 02:37:09;;;;;;;3.53;1.20;;;6.00;91.90;;;-146.41;100.00;57768.22;4926487;29;20051;-74
2022/04/20 02:39:37;;;;;;;4.10;1.40;;;5.90;92.20;;;-146.41;100.00;57768.22;4942574;28;20150;-74
2022/04/20 02:42:06;;;;;;;14.77;1.52;;;5.80;93.40;;;-146.41;100.00;57768.22;4941182;29;20051;-74
2022/04/20 02:44:34;;;;;;;3.22;1.10;;;5.80;93.90;;;-146.41;100.00;57768.22;4943937;28;20114;-74
2022/04/20 02:47:02;;;;;;;5.05;1.42;;;5.60;95.20;;;-146.41;100.00;57768.22;4927381;29;20051;-74
2022/04/20 02:49:29;;;;;;;7.05;1.35;;;5.60;95.80;;;-146.41;100.00;57768.22;4943175;28;20062;-74
2022/04/20 02:51:56;;;;;;;4.45;1.65;;;5.60;96.20;;;-146.41;100.00;57768.22;4926212;28;20130;-74
2022/04/20 02:54:23;;;;;;;5.82;1.50;;;5.60;96.20;;;-146.41;100.00;57768.22;4946138;29;20493;-74
2022/04/20 02:56:50;;;;;;;3.78;1.42;;;5.60;96.60;;;-146.41;100.00;57768.22;4927626;29;20047;-73
2022/04/20 02:59:17;;;;;;;2.83;1.20;;;5.60;97.50;;;-146.41;100.00;57768.22;4943677;29;20138;-73
2022/04/20 03:01:44;;;;;;;6.22;1.95;;;5.50;98.40;;;-146.41;100.00;57768.22;4942624;29;20122;-73
2022/04/20 03:04:12;;;;;;;2.88;1.50;;;5.30;99.50;;;-146.41;100.00;57768.22;4929275;29;20051;-73
2022/04/20 03:06:39;;;;;;;4.03;1.45;;;5.20;99.90;;;-146.41;100.00;57768.22;4941259;28;20513;-73
2022/04/20 03:09:06;;;;;;;5.35;1.70;;;5.10;99.90;;;-146.41;100.00;57768.22;4946750;28;20106;-73
2022/04/20 03:11:33;;;;;;;3.83;1.67;;;5.10;99.90;;;-146.41;100.00;57768.22;4943004;29;20093;-73
2022/04/20 03:14:00;;;;;;;5.03;1.90;;;5.00;99.90;;;-146.41;100.00;57768.22;4942944;29;20078;-73
2022/04/20 03:16:27;;;;;;;3.42;1.38;;;4.90;99.90;;;-146.41;100.00;57768.22;4940620;28;20040;-73
2022/04/20 03:18:55;;;;;;;3.40;1.60;;;4.90;99.90;;;-146.41;100.00;57768.22;4946027;29;20089;-74
2022/04/20 03:21:22;;;;;;;3.20;1.60;;;4.90;99.90;;;-146.41;100.00;57768.22;4941283;28;20074;-73
2022/04/20 03:23:48;;;;;;;4.07;1.40;;;4.90;99.90;;;-146.41;100.00;57768.22;4942649;29;20051;-73
2022/04/20 03:26:15;;;;;;;3.88;1.42;;;4.90;99.90;;;-146.41;100.00;57768.22;4939147;28;20055;-74
2022/04/20 03:28:43;;;;;;;2.53;1.40;;;5.00;99.90;;;-146.41;100.00;57768.22;4943996;29;20134;-74
2022/04/20 03:31:10;;;;;;;3.13;1.42;;;5.00;99.90;;;-146.41;100.00;57768.22;4941193;29;20584;-73
2022/04/20 03:33:37;;;;;;;6.22;1.67;;;5.10;99.90;;;-146.41;100.00;57768.22;4941249;28;20577;-74
2022/04/20 03:36:07;;;;;;;4.18;1.38;;;5.20;99.90;;;-146.41;100.00;57768.22;4945964;28;20125;-73
2022/04/20 03:38:35;;;;;;;4.05;1.48;;;5.20;99.90;;;-146.41;100.00;57768.22;4942346;29;20094;-73
2022/04/20 03:41:04;;;;;;;4.45;1.98;;;5.30;99.90;;;-146.41;100.00;57768.22;4942494;28;20520;-73
2022/04/20 03:43:32;;;;;;;3.80;1.50;;;5.30;99.90;;;-146.41;100.00;57768.22;4913582;29;20406;-73
2022/04/20 03:45:59;;;;;;;3.53;1.60;;;5.30;99.90;;;-146.41;100.00;57768.22;4926497;29;20139;-73
2022/04/20 03:48:26;;;;;;;4.82;1.35;;;5.20;99.90;;;-146.41;100.00;57768.22;4942826;29;20063;-73
2022/04/20 03:50:53;;;;;;;4.07;1.40;;;5.10;99.90;;;-146.41;100.00;57768.22;4940103;28;20467;-73
2022/04/20 03:53:21;;;;;;;5.03;1.92;;;5.10;99.90;;;-146.41;100.00;57768.22;4946733;29;20158;-73
2022/04/20 03:55:48;;;;;;;4.93;1.70;;;5.10;99.90;;;-146.41;100.00;57768.22;4924398;29;20573;-75
2022/04/20 03:58:15;;;;;;;9.07;2.05;;;4.90;99.90;;;-146.41;100.00;57768.22;4925728;29;20082;-74
2022/04/20 04:00:42;;;;;;;4.03;1.60;;;4.80;99.90;;;-146.41;100.00;57768.22;4941561;29;20077;-74
2022/04/20 04:03:09;;;;;;;6.10;1.95;;;4.90;99.90;;;-146.41;100.00;57768.22;4946652;29;20048;-74
2022/04/20 04:05:36;;;;;;;4.88;1.52;;;4.90;99.90;;;-146.41;100.00;57768.22;4931355;29;20114;-74
2022/04/20 04:08:03;;;;;;;3.72;1.50;;;4.90;99.90;;;-146.41;100.00;57768.22;4945825;29;20134;-76
2022/04/20 04:10:30;;;;;;;8.32;1.90;;;4.80;99.90;;;-146.41;100.00;57768.22;4930490;29;20047;-74
2022/04/20 04:12:57;;;;;;;4.40;1.90;;;4.80;99.90;;;-146.41;100.00;57768.22;4931554;29;20529;-74
2022/04/20 04:15:24;;;;;;;6.57;1.90;;;4.70;99.90;;;-146.41;100.00;57768.22;4947891;28;20154;-74
2022/04/20 04:17:54;;;;;;;6.68;2.47;;;4.60;99.90;;;-146.41;100.00;57768.22;4946708;29;20086;-74
2022/04/20 04:20:21;;;;;;;4.95;1.80;;;4.50;99.90;;;-146.41;100.00;57768.22;4944689;29;20047;-75
2022/04/20 04:22:52;;;;;;;5.50;1.60;;;4.50;99.90;;;-146.41;100.00;57768.22;4941786;29;20165;-74
2022/04/20 04:25:19;;;;;;;6.18;1.50;;;4.70;99.90;;;-146.41;100.00;57768.22;4942671;29;20075;-74
2022/04/20 04:27:47;;;;;;;3.83;1.38;;;4.70;99.90;;;-146.41;100.00;57768.22;4937651;29;20066;-74
2022/04/20 04:30:15;;;;;;;3.78;1.60;;;4.80;99.90;;;-146.41;100.00;57768.22;4946851;29;20074;-74
2022/04/20 04:32:42;;;;;;;5.70;1.90;;;4.80;99.90;;;-146.41;100.00;57768.22;4907430;29;20055;-74
2022/04/20 04:35:09;;;;;;;3.78;1.40;;;4.80;99.90;;;-146.41;100.00;57768.22;4944563;28;20051;-74
2022/04/20 04:37:36;;;;;;;5.68;1.85;;;4.90;99.90;;;-146.41;100.00;57768.22;4942697;28;20086;-74
2022/04/20 04:40:04;;;;;;;4.18;1.70;;;4.90;99.90;;;-146.41;100.00;57768.22;4939665;29;20489;-74
2022/04/20 04:42:31;;;;;;;4.25;1.85;;;4.90;99.90;;;-146.41;100.00;57768.22;4931453;29;20089;-74
2022/04/20 04:48:36;;;;;;;3.78;1.70;;;4.80;99.90;;;-146.41;100.00;57768.22;4948300;28;20058;-74
2022/04/20 04:50:37;;;;;;;4.20;2.25;;;4.80;99.90;;;-146.41;100.00;57768.22;4949527;29;20070;-74
2022/04/20 04:53:04;;;;;;;5.57;1.58;;;4.80;99.90;;;-146.41;100.00;57768.22;4948303;29;20479;-74
2022/04/20 04:55:31;;;;;;;4.38;2.00;;;4.90;99.90;;;-146.41;100.00;57768.22;4924496;29;20058;-75
2022/04/20 04:57:58;;;;;;;5.13;1.40;;;5.00;99.90;;;-146.41;100.00;57768.22;4942722;28;20086;-74
2022/04/20 05:00:25;;;;;;;5.35;1.63;;;5.00;99.90;;;-146.41;100.00;57768.22;4944432;29;20585;-74
2022/04/20 05:02:52;;;;;;;7.15;1.40;;;5.00;99.90;;;-146.41;100.00;57768.22;4946493;29;20079;-75
2022/04/20 05:05:19;;;;;;;7.18;1.77;;;4.90;99.90;;;-146.41;100.00;57768.22;4944997;28;20051;-72
2022/04/20 05:07:46;;;;;;;4.95;1.77;;;4.80;99.90;;;-146.41;100.00;57768.22;4914662;29;20118;-74
2022/04/20 05:10:13;;;;;;;4.25;1.70;;;4.90;99.90;;;-146.41;100.00;57768.22;4943760;29;20482;-74
2022/04/20 05:12:40;;;;;;;4.75;1.77;;;4.80;99.90;;;-146.41;100.00;57768.22;4918623;29;20123;-74
2022/04/20 05:15:07;;;;;;;6.28;2.15;;;4.80;99.90;;;-146.41;100.00;57768.22;4923816;29;20139;-74
2022/04/20 05:17:34;;;;;;;7.80;1.77;;;4.90;99.90;;;-146.41;100.00;57768.22;4944648;29;20075;-74
2022/04/20 05:20:01;;;;;;;5.20;1.90;;;4.90;99.90;;;-146.41;100.00;57768.22;4947634;28;20043;-74
2022/04/20 05:22:28;;;;;;;6.53;1.80;;;5.00;99.90;;;-146.41;100.00;57768.22;4946320;29;20138;-74
2022/04/20 05:24:56;;;;;;;4.15;1.67;;;5.20;99.90;;;-146.41;100.00;57768.22;4946033;28;20691;-74
2022/04/20 05:27:23;;;;;;;4.40;1.80;;;5.20;99.90;;;-146.41;100.00;57768.22;4944074;29;20150;-74
2022/04/20 05:29:50;;;;;;;2.97;1.77;;;5.30;99.90;;;-146.41;100.00;57768.22;4943063;29;20072;-74
2022/04/20 05:32:17;;;;;;;6.65;1.83;;;5.40;99.90;;;-146.41;100.00;57768.22;4946681;29;20059;-74
2022/04/20 05:34:44;;;;;;;5.03;2.10;;;5.60;99.90;;;-146.41;100.00;57768.22;4945948;28;20126;-74
2022/04/20 05:42:42;;;;;;;4.18;1.98;;;6.00;99.90;;;-146.41;100.00;57768.22;4945534;28;20074;-74
2022/04/20 05:45:10;;;;;;;6.05;2.03;;;6.20;99.90;;;-146.41;100.00;57768.22;4947319;28;20130;-73
2022/04/20 05:47:38;;;;;;;8.43;1.98;;;6.40;99.90;;;-146.41;100.00;57768.22;4946505;29;20059;-72
2022/04/20 05:50:06;;;;;;;3.85;2.10;;;6.50;99.90;;;-146.41;100.00;57768.22;4943503;28;20086;-72
2022/04/20 05:52:32;;;;;;;2.92;1.70;;;6.70;99.90;;;-146.41;100.00;57768.22;4944637;29;20078;-72
2022/04/20 05:55:00;;;;;;;4.78;2.05;;;6.90;99.90;;;-146.41;100.00;57768.22;4949848;28;20083;-73
2022/04/20 05:57:27;;;;;;;4.85;2.33;;;7.00;99.90;;;-146.41;100.00;57768.22;4927266;29;20171;-73
2022/04/20 05:59:54;;;;;;;4.78;1.88;;;7.10;99.90;;;-146.41;100.00;57768.22;4943820;29;20149;-73
2022/04/20 06:02:21;;;;;;;3.42;1.67;;;7.20;99.90;;;-146.41;100.00;57768.22;4945308;29;20086;-73
2022/04/20 06:04:48;;;;;;;5.30;1.90;;;7.40;99.90;;;-146.41;100.00;57768.22;4943694;28;20043;-73
2022/04/20 06:07:15;;;;;;;6.63;2.10;;;7.50;99.90;;;-146.41;100.00;57768.22;4944929;29;20053;-72
2022/04/20 06:09:41;;;;;;;4.75;1.95;;;7.60;99.90;;;-146.41;100.00;57768.22;4942317;29;20146;-72
2022/04/20 06:12:09;;;;;;;6.90;2.38;;;7.70;99.90;;;-146.41;100.00;57768.22;4941056;29;20087;-73
2022/04/20 06:14:36;;;;;;;7.45;2.15;;;7.80;99.90;;;-146.41;100.00;57768.22;4944628;28;20143;-73
2022/04/20 06:17:03;;;;;;;3.70;1.80;;;8.00;99.90;;;-146.41;100.00;57768.22;4941309;29;20051;-73
2022/04/20 06:19:30;;;;;;;4.97;2.13;;;8.00;99.90;;;-146.41;100.00;57768.22;4942029;28;20146;-73
2022/04/20 06:21:57;;;;;;;4.43;2.28;;;8.10;99.90;;;-146.41;100.00;57768.22;4946944;29;20098;-73
2022/04/20 06:24:24;;;;;;;5.10;2.05;;;8.20;99.60;;;-146.41;100.00;57768.22;4943449;29;20090;-73
2022/04/20 06:26:51;;;;;;;4.95;1.63;;;8.40;99.60;;;-146.41;100.00;57768.22;4943665;29;20058;-73
2022/04/20 06:29:18;;;;;;;4.28;1.92;;;8.70;98.70;;;-146.41;100.00;57768.22;4942157;29;20971;-74
2022/04/20 06:31:45;;;;;;;5.75;2.00;;;8.70;98.20;;;-146.41;100.00;57768.22;4942066;28;20058;-73
2022/04/20 06:34:13;;;;;;;4.25;1.55;;;8.80;98.20;;;-146.41;100.00;57768.22;4940056;28;20122;-73
2022/04/20 06:36:40;;;;;;;3.95;1.67;;;8.90;97.80;;;-146.41;100.00;57768.22;4940855;28;20110;-73
2022/04/20 06:39:07;;;;;;;7.22;1.70;;;9.10;97.70;;;-146.41;100.00;57768.22;4936636;29;20135;-73
2022/04/20 06:41:34;;;;;;;8.88;2.00;;;;;;;-146.41;100.00;57768.22;4940146;28;20050;-73
2022/04/20 06:44:02;;;;;;;4.03;1.75;;;9.20;96.10;;;-146.41;100.00;57768.22;4940457;29;20075;-73
2022/04/20 06:46:29;;;;;;;6.80;2.03;;;9.30;96.90;;;-146.41;100.00;57768.22;4924999;29;20098;-73
2022/04/20 06:49:01;;;;;;;7.20;2.00;;;9.20;95.30;;;-146.41;100.00;57768.22;4941899;28;20138;-73
2022/04/20 06:58:31;;;;;;;5.93;2.03;;;9.10;95.00;;;-146.41;100.00;57768.22;4941895;28;20110;-73
2022/04/20 06:59:45;;;;;;;4.65;1.85;;;9.20;94.70;;;-146.41;100.00;57768.22;4943677;29;20055;-73
2022/04/20 07:02:12;;;;;;;3.88;1.80;;;9.30;95.40;;;-146.41;100.00;57768.22;4944470;29;20498;-72
2022/04/20 07:04:39;;;;;;;3.63;1.50;;;9.20;95.20;;;-146.41;100.00;57768.22;4939896;28;20121;-73
2022/04/20 07:07:06;;;;;;;3.60;1.85;;;9.50;95.20;;;-146.41;100.00;57768.22;4938672;29;20075;-73
2022/04/20 07:09:34;;;;;;;7.72;1.60;;;9.50;94.00;;;-146.41;100.00;57768.22;4941115;29;20056;-73
2022/04/20 07:12:00;;;;;;;7.35;1.58;;;9.60;93.70;;;-146.41;100.00;57768.22;4941474;29;20051;-72
2022/04/20 07:14:27;;;;;;;3.28;1.50;;;9.60;94.00;;;-146.41;100.00;57768.22;4940010;28;20131;-72
2022/04/20 07:16:55;;;;;;;3.35;1.50;;;9.60;92.80;;;-146.41;100.00;57768.22;4941433;29;20079;-74
2022/04/20 07:19:22;;;;;;;4.18;1.65;;;9.80;93.20;;;-146.41;100.00;57768.22;4944746;28;20070;-73
2022/04/20 07:21:49;;;;;;;3.42;1.55;;;9.80;92.30;;;-146.41;100.00;57768.22;4941914;29;20565;-73
2022/04/20 07:24:16;;;;;;;3.75;1.58;;;9.80;91.90;;;-146.41;100.00;57768.22;4943877;29;20078;-73
2022/04/20 07:26:43;;;;;;;9.73;1.65;;;9.90;90.80;;;-146.41;100.00;57768.22;4944531;28;20078;-73
2022/04/20 07:29:10;;;;;;;3.67;1.40;;;9.90;90.80;;;-146.41;100.00;57768.22;4942026;29;20118;-73
2022/04/20 07:31:37;;;;;;;5.07;1.70;;;10.10;91.60;;;-146.41;100.00;57768.22;4945633;29;20047;-73
2022/04/20 07:34:04;;;;;;;8.20;1.70;;;10.20;90.90;;;-146.41;100.00;57768.22;4939970;28;20127;-73
2022/04/20 07:36:31;;;;;;;6.60;1.75;;;10.50;91.70;;;-146.41;100.00;57768.22;4942603;29;20118;-73
2022/04/20 07:38:58;;;;;;;3.05;1.45;;;10.40;90.20;;;-146.41;100.00;57768.22;4940050;28;20127;-73
2022/04/20 07:41:25;;;;;;;3.30;1.70;;;10.20;90.40;;;-146.41;100.00;57768.22;4941739;29;20429;-72
2022/04/20 07:43:52;;;;;;;3.22;1.75;;;10.30;90.80;;;-146.41;100.00;57768.22;4938820;29;20058;-73
2022/04/20 07:46:20;;;;;;;4.45;1.60;;;10.50;90.50;;;-146.41;100.00;57768.22;4942801;28;20063;-73
2022/04/20 07:48:47;;;;;;;6.22;1.77;;;10.50;90.20;;;-146.41;100.00;57768.22;4923642;29;20039;-73
2022/04/20 07:51:14;;;;;;;3.33;1.40;;;10.50;89.30;;;-146.41;100.00;57768.22;4940889;28;20050;-74
2022/04/20 07:53:41;;;;;;;5.90;1.60;;;10.60;89.50;;;-146.41;100.00;57768.22;4945718;29;20078;-72
2022/04/20 07:56:09;;;;;;;5.38;1.40;;;10.60;87.80;;;-146.41;100.00;57768.22;4940159;28;20111;-73
2022/04/20 07:58:36;;;;;;;5.30;1.80;;;10.70;88.10;;;-146.41;100.00;57768.22;4938863;28;20134;-73
2022/04/20 08:01:03;;;;;;;4.90;1.50;;;10.60;85.60;;;-146.41;100.00;57768.22;4944184;29;20087;-73
2022/04/20 08:03:31;;;;;;;4.97;1.40;;;10.80;86.20;;;-146.41;100.00;57768.22;4924441;29;20047;-74
2022/04/20 08:06:01;;;;;;;4.22;1.70;;;11.00;86.50;;;-146.41;100.00;57768.22;4942288;28;20131;-73
2022/04/20 08:08:28;;;;;;;4.25;1.70;;;11.00;84.70;;;-146.41;100.00;57768.22;4944869;29;20121;-73
2022/04/20 08:10:55;;;;;;;8.90;1.88;;;11.10;87.50;;;-146.41;100.00;57768.22;4942565;29;20150;-72
2022/04/20 08:16:08;;;;;;;3.72;1.52;;;11.00;85.80;;;-146.41;100.00;57768.22;4946526;29;20071;-73
2022/04/20 08:18:35;;;;;;;10.57;1.60;;;10.90;84.20;;;-146.41;100.00;57768.22;4946774;28;20047;-72
2022/04/20 08:21:02;;;;;;;7.47;1.52;;;11.20;83.70;;;-146.41;100.00;57768.22;4932486;29;20131;-73
2022/04/20 08:23:32;;;;;;;7.38;1.50;;;11.30;81.80;;;-146.41;100.00;57768.22;4946661;29;20087;-73
2022/04/20 08:26:00;;;;;;;2.53;1.10;;;;;;;-146.41;100.00;57768.22;4945827;28;20572;-73
2022/04/20 08:28:27;;;;;;;2.95;1.20;;;12.00;93.70;;;-146.41;100.00;57768.22;4949635;28;20062;-73
2022/04/20 08:30:54;;;;;;;4.47;1.30;;;12.30;94.50;;;-146.41;100.00;57768.22;4946381;28;20070;-73
2022/04/20 08:33:21;;;;;;;5.50;1.70;;;12.50;94.20;;;-146.41;100.00;57768.22;4948891;29;20067;-73
2022/04/20 08:35:49;;;;;;;4.35;1.65;;;12.60;96.10;;;-146.41;100.00;57768.22;4946041;28;20119;-73
2022/04/20 08:38:15;;;;;;;2.92;1.30;;;13.20;95.40;;;-146.41;100.00;57768.22;4948858;29;20158;-73
2022/04/20 08:40:43;;;;;;;7.75;1.90;;;13.40;93.60;;;-146.41;100.00;57768.22;4948105;29;20150;-73
2022/04/20 08:43:12;;;;;;;5.55;1.40;;;13.40;92.80;;;-146.41;100.00;57768.22;4945234;28;20138;-73
2022/04/20 08:45:40;;;;;;;7.50;1.98;;;13.50;92.90;;;-146.41;100.00;57768.22;4945542;28;20090;-73
2022/04/20 08:48:08;;;;;;;6.35;1.50;;;13.30;72.00;;;-146.41;100.00;57768.22;4914528;29;20150;-73
2022/04/20 08:50:36;;;;;;;5.28;1.15;;;13.30;70.60;;;-146.41;100.00;57768.22;4944874;28;20130;-73
2022/04/20 08:53:03;;;;;;;3.90;1.50;;;13.30;72.30;;;-146.41;100.00;57768.22;4946824;29;20127;-73
2022/04/20 08:55:31;;;;;;;5.50;1.50;;;13.00;72.10;;;-146.41;100.00;57768.22;4937320;28;20047;-73
2022/04/20 08:57:59;;;;;;;4.93;1.95;;;13.50;72.10;;;-146.41;100.00;57768.22;4943669;28;20075;-73
2022/04/20 09:00:27;;;;;;;5.32;2.03;;;13.30;71.10;;;-146.41;100.00;57768.22;4946615;29;20090;-73
2022/04/20 09:03:01;;;;;;;2.55;1.40;;;13.20;70.40;;;-146.41;100.00;57768.22;4916987;29;20051;-73
2022/04/20 09:05:33;;;;;;;3.67;1.55;;;13.60;70.60;;;-146.41;100.00;57768.22;4909617;29;65555;-73
2022/04/20 09:08:11;;;;;;;3.28;1.65;;;13.50;70.10;;;-146.41;100.00;57768.22;4904958;29;20078;-73
2022/04/20 09:10:39;;;;;;;7.78;1.92;;;13.70;70.30;;;-146.41;100.00;57768.22;4907386;29;20082;-73
2022/04/20 09:13:09;;;;;;;3.47;1.50;;;13.80;69.10;;;-146.41;100.00;57768.22;4904221;29;20095;-73
2022/04/20 09:15:38;;;;;;;3.75;1.27;;;14.20;69.10;;;-146.41;100.00;57768.22;4904175;29;20107;-73
2022/04/20 09:18:07;;;;;;;3.25;1.65;;;14.70;69.30;;;-146.41;100.00;57768.22;4914354;29;20071;-73
2022/04/20 09:20:35;;;;;;;4.88;1.55;;;14.40;67.30;;;-146.41;100.00;57768.22;4906718;29;20076;-72
2022/04/20 09:23:13;;;;;;;4.22;1.70;;;14.10;68.40;;;-146.41;100.00;57768.22;4907703;29;20067;-73
2022/04/20 09:25:49;;;;;;;;;;;13.90;68.40;;;-146.41;100.00;57768.22;4904149;29;20056;-73
2022/04/20 09:28:17;;;;;;;7.68;1.77;;;13.60;67.80;;;-146.41;100.00;57768.22;4908342;29;20452;-73
2022/04/20 09:30:49;;;;;;;6.32;1.45;;;13.90;67.90;;;-146.41;100.00;57768.22;4888524;29;20135;-72
2022/04/20 09:33:16;;;;;;;9.13;1.50;;;14.10;66.80;;;-146.41;100.00;57768.22;4908128;29;20126;-72
2022/04/20 09:35:50;;;;;;;10.55;1.63;;;14.20;67.20;;;-146.41;100.00;57768.22;4905421;29;20443;-72
2022/04/20 09:38:20;;;;;;;5.57;1.35;;;14.10;64.70;;;-146.41;100.00;57768.22;4888268;29;20044;-74
2022/04/20 09:40:49;;;;;;;5.00;1.30;;;14.20;64.30;;;-146.41;100.00;57768.22;4905768;29;20139;-74
2022/04/20 09:43:19;;;;;;;8.68;1.45;;;14.10;64.30;;;-146.41;100.00;57768.22;4910876;29;20080;-72
2022/04/20 09:49:07;;;;;;;2.40;0.90;;;14.50;64.30;;;-146.41;100.00;57768.22;4903080;29;20263;-72
2022/04/20 09:51:40;;;;;;;4.82;1.30;;;15.00;64.80;;;-146.41;100.00;57768.22;4895302;29;20076;-73
2022/04/20 09:54:26;;;;;;;3.70;1.30;;;14.40;63.20;;;-146.41;100.00;57768.22;4894840;29;20113;-74
2022/04/20 09:57:12;;;;;;;3.13;1.00;;;14.50;64.10;;;-146.41;100.00;57768.22;4905812;29;20048;-73
2022/04/20 10:00:09;;;;;;;3.72;0.93;;;15.40;64.50;;;-146.41;100.00;57768.22;4890820;29;20048;-73
2022/04/20 10:02:51;;;;;;;3.45;1.05;;;15.40;61.30;;;-146.41;100.00;57768.22;4907459;29;20048;-73
2022/04/20 10:05:21;;;;;;;4.25;1.05;;;15.50;62.10;;;-146.41;100.00;57768.22;4908358;29;20048;-73
2022/04/20 10:07:54;;;;;;;6.20;1.20;;;15.30;62.40;;;-146.41;100.00;57768.22;4905783;29;20060;-72
2022/04/20 10:10:22;;;;;;;24.60;1.75;;;15.60;62.00;;;-146.41;100.00;57768.22;4904360;29;20147;-73
2022/04/20 10:12:54;;;;;;;5.15;1.30;;;15.60;62.80;;;-146.41;100.00;57768.22;4905956;29;20126;-73
2022/04/20 10:18:21;;;;;;;4.18;1.20;;;15.80;63.40;;;-146.41;100.00;57768.22;4903498;29;20053;-73
2022/04/20 10:20:52;;;;;;;5.25;1.10;;;15.70;62.10;;;-146.41;100.00;57768.22;4891078;29;20062;-73
2022/04/20 10:23:22;;;;;;;5.55;1.40;;;15.80;61.60;;;-146.41;100.00;57768.22;4888121;29;20135;-73
2022/04/20 10:25:52;;;;;;;3.05;1.08;;;15.60;61.80;;;-146.41;100.00;57768.22;4904388;29;20174;-72
2022/04/20 10:28:36;;;;;;;3.40;1.33;;;15.80;62.40;;;-146.41;100.00;57768.22;4904231;29;20098;-73
2022/04/20 10:31:29;;;;;;;3.65;1.60;;;15.50;62.00;;;-146.41;100.00;57768.22;4903057;29;20048;-73
2022/04/20 10:33:57;;;;;;;4.60;1.20;;;15.00;62.10;;;-146.41;100.00;57768.22;4907930;29;20514;-73